Time;durP1;ratioP1;P1;durP2;ratioP2;P2;SDS_P1;SDS_P2;PMS_P1;PMS_P2;Temp;Humidity;BMP_temperature;BMP_pressure;BME280_temperature;BME280_humidity;BME280_pressure;Samples;Min_cycle;Max_cycle;Signal;HPM_P1;HPM_P2
2023/01/22 00:01:38;;;;;;;10.68;7.00;;;9.10;81.40;;;;;;6271071;22;20003;-78
2023/01/22 00:04:04;;;;;;;10.07;7.00;;;9.10;81.40;;;;;;6244087;22;19996;-78
2023/01/22 00:06:30;;;;;;;11.63;7.47;;;9.10;81.50;;;;;;6270157;22;20008;-76
2023/01/22 00:08:56;;;;;;;10.25;6.97;;;9.10;81.40;;;;;;6244139;22;20434;-78
2023/01/22 00:11:22;;;;;;;11.82;7.95;;;9.20;81.40;;;;;;6270742;22;20007;-77
2023/01/22 00:13:47;;;;;;;11.13;7.25;;;9.10;81.40;;;;;;6244073;22;20007;-77
2023/01/22 00:16:16;;;;;;;10.90;7.40;;;9.10;81.20;;;;;;6270332;22;20008;-79
2023/01/22 00:18:43;;;;;;;10.40;7.07;;;9.10;81.30;;;;;;6244015;22;20003;-84
2023/01/22 00:21:09;;;;;;;11.23;7.63;;;9.10;81.30;;;;;;6271944;22;20012;-77
2023/01/22 00:23:34;;;;;;;11.45;7.50;;;9.20;81.40;;;;;;6243749;22;20311;-77
2023/01/22 00:26:11;;;;;;;10.10;7.30;;;9.10;81.40;;;;;;6270488;22;19996;-78
2023/01/22 00:28:38;;;;;;;10.65;6.93;;;9.10;81.30;;;;;;6270399;22;20736;-76
2023/01/22 00:31:05;;;;;;;10.40;6.97;;;9.10;81.20;;;;;;6243648;22;20073;-79
2023/01/22 00:33:31;;;;;;;10.77;7.13;;;9.10;81.20;;;;;;6270552;22;20053;-79
2023/01/22 00:36:03;;;;;;;12.07;7.43;;;9.10;81.20;;;;;;6244010;22;20035;-78
2023/01/22 00:38:29;;;;;;;11.13;7.32;;;9.10;81.30;;;;;;6271390;22;20022;-78
2023/01/22 00:40:54;;;;;;;11.40;7.63;;;9.10;81.20;;;;;;6270858;22;20338;-78
2023/01/22 00:43:20;;;;;;;10.52;7.57;;;9.10;81.20;;;;;;6244298;22;20003;-77
2023/01/22 00:45:45;;;;;;;9.60;6.68;;;9.10;81.20;;;;;;6243704;22;20004;-78
2023/01/22 00:48:11;;;;;;;10.23;7.03;;;9.10;81.20;;;;;;6244568;22;19996;-81
2023/01/22 00:50:37;;;;;;;10.20;6.80;;;9.10;81.20;;;;;;6272109;22;20004;-78
2023/01/22 00:53:02;;;;;;;11.25;7.00;;;9.10;81.20;;;;;;6246133;22;19999;-79
2023/01/22 00:55:29;;;;;;;10.45;7.03;;;9.10;81.20;;;;;;6245423;22;20004;-78
2023/01/22 00:57:55;;;;;;;10.48;6.78;;;9.10;81.30;;;;;;6272725;22;20004;-77
2023/01/22 01:00:21;;;;;;;10.23;7.22;;;9.10;81.10;;;;;;6244896;22;20148;-79
2023/01/22 01:05:31;;;;;;;10.48;6.80;;;9.10;81.30;;;;;;6272276;22;20091;-79
2023/01/22 01:07:57;;;;;;;9.98;6.68;;;9.10;81.20;;;;;;6272951;22;20049;-78
2023/01/22 01:10:22;;;;;;;9.85;6.95;;;9.10;81.20;;;;;;6245318;22;20015;-77
2023/01/22 01:12:48;;;;;;;10.77;7.28;;;9.10;81.20;;;;;;6245730;22;20053;-79
2023/01/22 01:15:13;;;;;;;9.60;6.63;;;9.10;81.30;;;;;;6243968;22;20331;-76
2023/01/22 01:17:39;;;;;;;9.90;6.55;;;9.10;81.30;;;;;;6245782;22;20457;-77
2023/01/22 01:20:05;;;;;;;10.07;6.85;;;9.10;81.30;;;;;;6244410;22;20062;-77
2023/01/22 01:22:30;;;;;;;9.48;6.65;;;9.10;81.30;;;;;;6245161;22;20442;-79
2023/01/22 01:24:56;;;;;;;9.52;6.65;;;9.10;81.20;;;;;;6245696;22;20007;-76
2023/01/22 01:27:21;;;;;;;10.18;6.72;;;9.10;81.20;;;;;;6244836;22;19999;-78
2023/01/22 01:29:47;;;;;;;9.85;6.88;;;9.10;81.20;;;;;;6273227;22;20007;-81
2023/01/22 01:32:12;;;;;;;9.55;6.53;;;9.10;81.20;;;;;;6245102;22;20030;-76
2023/01/22 01:34:38;;;;;;;10.40;7.05;;;9.10;81.20;;;;;;6245835;22;20000;-76
2023/01/22 01:37:03;;;;;;;9.70;6.40;;;9.10;81.30;;;;;;6272577;22;20003;-79
2023/01/22 01:39:29;;;;;;;9.50;6.50;;;9.10;81.30;;;;;;6245225;22;20011;-76
2023/01/22 01:41:54;;;;;;;9.73;6.82;;;9.10;81.30;;;;;;6272355;22;20784;-79
2023/01/22 01:44:22;;;;;;;8.93;6.35;;;9.10;81.30;;;;;;6245456;22;20074;-77
2023/01/22 01:46:52;;;;;;;10.13;6.45;;;9.10;81.10;;;;;;6244318;22;20137;-82
2023/01/22 01:49:22;;;;;;;9.48;6.50;;;9.10;81.30;;;;;;6272816;22;20006;-76
2023/01/22 01:51:48;;;;;;;9.82;6.80;;;9.10;81.30;;;;;;6245145;22;20010;-79
2023/01/22 01:54:15;;;;;;;9.30;6.47;;;9.10;81.30;;;;;;6245510;22;20598;-80
2023/01/22 01:56:46;;;;;;;9.80;6.80;;;9.10;81.30;;;;;;6244504;22;20016;-82
2023/01/22 01:59:14;;;;;;;9.60;6.68;;;9.10;81.20;;;;;;6272311;22;20062;-77
2023/01/22 02:01:42;;;;;;;9.25;6.00;;;9.10;81.20;;;;;;6244563;22;20354;-77
2023/01/22 02:04:08;;;;;;;9.55;6.68;;;9.10;81.20;;;;;;6245075;22;20004;-80
2023/01/22 02:06:33;;;;;;;8.60;6.28;;;9.10;81.30;;;;;;6272015;22;20004;-77
2023/01/22 02:08:59;;;;;;;10.02;6.80;;;9.10;81.80;;;;;;6245246;22;20090;-78
2023/01/22 02:11:26;;;;;;;9.25;6.20;;;9.10;81.20;;;;;;6245014;22;20004;-76
2023/01/22 02:13:58;;;;;;;9.23;6.53;;;9.10;81.30;;;;;;6244853;22;20057;-77
2023/01/22 02:16:24;;;;;;;9.88;6.47;;;9.10;81.20;;;;;;6244771;22;20004;-75
2023/01/22 02:18:49;;;;;;;9.27;6.25;;;9.10;81.30;;;;;;6244961;22;20745;-77
2023/01/22 02:21:40;;;;;;;9.77;6.72;;;9.10;81.30;;;;;;6244404;22;20090;-75
2023/01/22 02:24:09;;;;;;;9.50;6.35;;;9.10;81.30;;;;;;6244992;22;20008;-79
2023/01/22 02:26:36;;;;;;;9.30;6.00;;;9.10;81.30;;;;;;6244901;22;20003;-76
2023/01/22 02:29:01;;;;;;;9.27;6.43;;;9.10;81.20;;;;;;6244858;22;20052;-76
2023/01/22 02:31:27;;;;;;;8.73;6.03;;;9.10;81.40;;;;;;6271834;22;20003;-77
2023/01/22 02:33:52;;;;;;;9.60;6.65;;;9.10;81.30;;;;;;6244445;22;20008;-78
2023/01/22 02:36:18;;;;;;;9.55;6.55;;;9.00;81.30;;;;;;6244696;22;20007;-77
2023/01/22 02:38:44;;;;;;;9.35;6.13;;;9.10;81.30;;;;;;6271534;22;20023;-80
2023/01/22 02:41:10;;;;;;;8.80;6.28;;;9.10;81.40;;;;;;6244894;22;20010;-76
2023/01/22 02:43:35;;;;;;;9.00;6.30;;;9.10;81.30;;;;;;6244619;22;20194;-76
2023/01/22 02:46:01;;;;;;;9.23;6.30;;;9.10;81.40;;;;;;6271810;22;20057;-76
2023/01/22 02:48:26;;;;;;;9.02;6.22;;;9.00;81.30;;;;;;6244539;22;20079;-80
2023/01/22 02:50:52;;;;;;;9.43;6.07;;;9.10;81.30;;;;;;6244711;22;20004;-76
2023/01/22 02:53:17;;;;;;;8.70;5.97;;;9.10;81.40;;;;;;6271776;22;20011;-77
2023/01/22 02:55:45;;;;;;;9.40;6.05;;;9.10;81.40;;;;;;6243861;22;20010;-78
2023/01/22 02:58:10;;;;;;;9.98;6.25;;;9.10;81.40;;;;;;6244778;22;20320;-81
2023/01/22 03:00:36;;;;;;;9.07;6.15;;;9.10;81.40;;;;;;6244417;22;20082;-76
2023/01/22 03:03:06;;;;;;;9.50;6.30;;;9.00;81.30;;;;;;6244831;22;20008;-81
2023/01/22 03:05:34;;;;;;;9.15;6.15;;;9.10;81.50;;;;;;6244170;22;20011;-78
2023/01/22 03:08:00;;;;;;;8.55;5.97;;;9.00;81.40;;;;;;6244432;22;20027;-77
2023/01/22 03:10:26;;;;;;;8.25;5.82;;;9.10;81.40;;;;;;6244215;22;20015;-78
2023/01/22 03:21:15;;;;;;;9.23;6.28;;;9.10;81.50;;;;;;6270731;22;20018;-83
2023/01/22 03:23:42;;;;;;;8.43;5.85;;;9.10;81.40;;;;;;6244192;22;20744;-80
2023/01/22 03:26:08;;;;;;;9.02;5.63;;;9.10;81.50;;;;;;6243745;22;20342;-76
2023/01/22 03:28:34;;;;;;;8.68;5.93;;;9.00;81.40;;;;;;6271409;22;20013;-77
2023/01/22 03:31:00;;;;;;;8.23;5.57;;;9.10;81.40;;;;;;6244014;22;20014;-80
2023/01/22 03:33:25;;;;;;;7.85;5.68;;;9.00;81.30;;;;;;6271480;22;20032;-77
2023/01/22 03:35:51;;;;;;;8.90;6.15;;;9.00;81.40;;;;;;6270801;22;20490;-79
2023/01/22 03:38:16;;;;;;;8.90;6.07;;;9.00;81.40;;;;;;6271441;22;20413;-76
2023/01/22 03:40:42;;;;;;;8.52;5.93;;;9.00;81.50;;;;;;6243928;22;20004;-75
2023/01/22 03:43:07;;;;;;;8.38;6.00;;;9.10;81.50;;;;;;6243325;22;20080;-77
2023/01/22 03:45:33;;;;;;;8.02;5.40;;;9.00;81.50;;;;;;6242671;22;20003;-76
2023/01/22 03:48:01;;;;;;;8.32;5.45;;;9.10;81.50;;;;;;6244044;22;20003;-77
2023/01/22 03:50:26;;;;;;;7.80;5.50;;;9.10;81.50;;;;;;6244051;22;20006;-78
2023/01/22 03:52:52;;;;;;;8.57;5.70;;;9.00;81.50;;;;;;6271657;22;20053;-78
2023/01/22 03:55:17;;;;;;;9.20;6.22;;;9.00;81.60;;;;;;6271156;22;20004;-77
2023/01/22 03:57:43;;;;;;;7.65;5.22;;;9.10;81.60;;;;;;6271143;22;20035;-77
2023/01/22 04:00:09;;;;;;;7.65;5.15;;;9.00;81.50;;;;;;6244293;22;20014;-78
2023/01/22 04:02:36;;;;;;;7.75;5.43;;;9.00;81.60;;;;;;6244051;22;20018;-77
2023/01/22 04:05:02;;;;;;;9.07;5.75;;;9.10;81.70;;;;;;6243747;22;20010;-78
2023/01/22 04:07:27;;;;;;;8.73;6.05;;;9.00;81.50;;;;;;6243831;22;20003;-76
2023/01/22 04:09:53;;;;;;;8.50;5.72;;;9.00;81.50;;;;;;6271450;22;20413;-78
2023/01/22 04:12:18;;;;;;;7.85;5.65;;;9.10;81.60;;;;;;6244215;22;20031;-76
2023/01/22 04:14:44;;;;;;;8.32;5.82;;;9.00;81.50;;;;;;6243917;22;20008;-77
2023/01/22 04:17:09;;;;;;;8.05;5.63;;;9.00;81.60;;;;;;6243802;22;20103;-76
2023/01/22 04:19:35;;;;;;;8.10;5.25;;;9.00;81.60;;;;;;6243894;22;20007;-77
2023/01/22 04:22:00;;;;;;;7.95;5.60;;;9.10;81.50;;;;;;6243543;22;20007;-79
2023/01/22 04:24:26;;;;;;;8.40;5.60;;;9.00;81.50;;;;;;6243450;22;20095;-76
2023/01/22 04:26:51;;;;;;;8.02;5.55;;;9.10;81.50;;;;;;6243475;22;19996;-77
2023/01/22 04:29:17;;;;;;;8.15;5.45;;;9.00;81.50;;;;;;6269893;22;20011;-80
2023/01/22 04:31:43;;;;;;;7.80;5.13;;;9.00;81.50;;;;;;6270763;22;20712;-77
2023/01/22 04:34:09;;;;;;;8.13;5.32;;;9.00;81.70;;;;;;6244353;22;20097;-77
2023/01/22 04:36:34;;;;;;;7.88;5.38;;;9.00;81.50;;;;;;6243729;22;20014;-78
2023/01/22 04:39:00;;;;;;;7.63;4.97;;;9.00;81.50;;;;;;6243758;22;20014;-77
2023/01/22 04:41:25;;;;;;;7.65;5.20;;;9.00;81.50;;;;;;6271059;22;20051;-76
2023/01/22 04:43:51;;;;;;;7.25;4.80;;;9.00;81.50;;;;;;6271339;22;20004;-77
2023/01/22 04:46:16;;;;;;;8.20;5.20;;;9.00;82.00;;;;;;6242533;22;20007;-79
2023/01/22 04:48:42;;;;;;;7.63;5.22;;;9.00;81.50;;;;;;6243861;22;20026;-81
2023/01/22 04:51:07;;;;;;;7.82;5.45;;;9.00;81.50;;;;;;6271105;22;20137;-76
2023/01/22 04:53:33;;;;;;;7.80;5.13;;;9.00;81.60;;;;;;6243927;22;20588;-79
2023/01/22 04:55:58;;;;;;;7.35;5.07;;;9.00;81.50;;;;;;6270241;22;20000;-79
2023/01/22 04:58:24;;;;;;;7.70;5.10;;;9.00;81.50;;;;;;6243958;22;20635;-79
2023/01/22 05:00:49;;;;;;;8.02;4.82;;;9.00;81.40;;;;;;6243460;22;20039;-78
2023/01/22 05:03:15;;;;;;;7.45;5.10;;;9.00;81.50;;;;;;6243490;22;20410;-76
2023/01/22 05:05:40;;;;;;;7.78;5.30;;;9.00;81.50;;;;;;6243624;22;20000;-81
2023/01/22 05:08:06;;;;;;;7.00;4.60;;;9.00;81.60;;;;;;6244167;22;20004;-77
2023/01/22 05:10:31;;;;;;;7.70;5.30;;;9.00;81.40;;;;;;6270729;22;20031;-78
2023/01/22 05:13:00;;;;;;;7.80;5.18;;;9.00;81.60;;;;;;6243416;22;20085;-76
2023/01/22 05:15:26;;;;;;;7.63;5.00;;;9.00;81.40;;;;;;6243300;22;20003;-77
2023/01/22 05:17:52;;;;;;;7.97;5.03;;;9.00;81.40;;;;;;6270553;22;20405;-78
2023/01/22 05:20:17;;;;;;;7.93;5.15;;;9.00;81.50;;;;;;6269805;22;20431;-76
2023/01/22 05:22:43;;;;;;;7.32;4.70;;;9.00;81.50;;;;;;6243448;22;20007;-77
2023/01/22 05:25:08;;;;;;;7.53;4.65;;;9.00;81.50;;;;;;6270092;22;20000;-82
2023/01/22 05:27:34;;;;;;;7.30;5.07;;;9.00;81.60;;;;;;6243246;22;20007;-76
2023/01/22 05:29:59;;;;;;;7.68;5.30;;;9.00;81.50;;;;;;6243768;22;20031;-76
2023/01/22 05:32:25;;;;;;;7.25;4.80;;;9.00;81.60;;;;;;6270715;22;20004;-76
2023/01/22 05:34:50;;;;;;;7.50;4.60;;;9.00;81.60;;;;;;6270409;22;20012;-75
2023/01/22 05:37:16;;;;;;;6.88;4.40;;;9.00;81.60;;;;;;6270753;22;20015;-77
2023/01/22 05:39:41;;;;;;;7.35;4.90;;;9.00;81.50;;;;;;6272579;22;20008;-78
2023/01/22 05:42:14;;;;;;;7.53;5.07;;;9.00;81.60;;;;;;6272510;22;20056;-79
2023/01/22 05:44:40;;;;;;;6.60;4.43;;;9.00;81.50;;;;;;6244621;22;20007;-77
2023/01/22 05:47:06;;;;;;;7.22;5.00;;;9.00;81.50;;;;;;6245059;22;20008;-80
2023/01/22 05:49:31;;;;;;;7.78;5.32;;;9.00;81.50;;;;;;6272546;22;20011;-77
2023/01/22 05:51:56;;;;;;;7.32;4.82;;;9.00;81.50;;;;;;6272481;22;20018;-77
2023/01/22 05:54:22;;;;;;;6.93;4.60;;;9.00;81.50;;;;;;6272089;22;20004;-78
2023/01/22 05:56:47;;;;;;;7.10;4.47;;;9.00;81.60;;;;;;6272246;22;20083;-78
2023/01/22 05:59:13;;;;;;;7.10;4.55;;;9.00;81.50;;;;;;6272487;22;20343;-79
2023/01/22 06:01:38;;;;;;;6.50;4.25;;;9.00;81.60;;;;;;6244049;22;20061;-79
2023/01/22 06:04:04;;;;;;;7.57;4.90;;;9.00;81.60;;;;;;6244777;22;20086;-77
2023/01/22 06:06:29;;;;;;;7.63;4.95;;;9.00;81.50;;;;;;6272106;22;20057;-76
2023/01/22 06:08:55;;;;;;;7.13;4.60;;;9.00;81.60;;;;;;6244821;22;20008;-79
2023/01/22 06:11:20;;;;;;;7.47;4.65;;;9.00;81.70;;;;;;6272305;22;20018;-77
2023/01/22 06:13:46;;;;;;;6.90;4.47;;;9.00;81.50;;;;;;6244850;22;20331;-77
2023/01/22 06:16:11;;;;;;;6.70;4.38;;;9.00;81.70;;;;;;6244729;22;20011;-77
2023/01/22 06:18:37;;;;;;;6.55;4.20;;;9.00;81.70;;;;;;6244962;22;20003;-78
2023/01/22 06:21:05;;;;;;;6.28;4.13;;;9.00;81.70;;;;;;6244948;22;20488;-76
2023/01/22 06:23:31;;;;;;;6.90;4.43;;;9.00;81.60;;;;;;6245351;22;20008;-80
2023/01/22 06:25:58;;;;;;;6.78;4.43;;;9.00;81.70;;;;;;6271392;22;20006;-78
2023/01/22 06:28:25;;;;;;;6.57;4.32;;;9.00;81.60;;;;;;6244598;22;20043;-83
2023/01/22 06:30:51;;;;;;;6.53;4.40;;;9.00;81.60;;;;;;6271897;22;20000;-76
2023/01/22 06:33:17;;;;;;;6.70;4.38;;;9.00;81.70;;;;;;6244471;22;20758;-76
2023/01/22 06:35:43;;;;;;;6.40;4.00;;;9.00;81.70;;;;;;6244893;22;20004;-77
2023/01/22 06:38:08;;;;;;;7.07;4.50;;;9.00;81.70;;;;;;6244547;22;20014;-79
2023/01/22 06:40:34;;;;;;;6.28;4.15;;;9.00;82.00;;;;;;6244689;22;20042;-81
2023/01/22 06:43:04;;;;;;;6.72;4.43;;;9.00;81.80;;;;;;6271773;22;20000;-76
2023/01/22 06:45:30;;;;;;;6.40;4.05;;;9.00;81.70;;;;;;6271366;22;19995;-77
2023/01/22 06:47:55;;;;;;;5.97;3.95;;;9.00;81.70;;;;;;6271330;22;20421;-76
2023/01/22 06:50:21;;;;;;;6.55;3.83;;;9.00;81.70;;;;;;6272216;22;20010;-76
2023/01/22 06:52:46;;;;;;;6.78;4.20;;;9.00;81.80;;;;;;6243464;22;20008;-76
2023/01/22 06:55:12;;;;;;;5.93;3.80;;;9.00;81.80;;;;;;6244900;22;20000;-75
2023/01/22 06:57:37;;;;;;;6.18;4.03;;;9.00;81.80;;;;;;6244429;22;20370;-76
2023/01/22 07:00:04;;;;;;;6.68;4.57;;;9.00;81.80;;;;;;6245202;22;20086;-76
2023/01/22 07:02:30;;;;;;;7.25;4.32;;;9.00;81.70;;;;;;6244798;22;20015;-76
2023/01/22 07:04:56;;;;;;;6.75;4.40;;;9.00;81.70;;;;;;6244376;22;20000;-80
2023/01/22 07:07:21;;;;;;;6.05;4.05;;;9.00;81.70;;;;;;6243328;22;20014;-78
2023/01/22 07:09:47;;;;;;;6.90;4.40;;;9.00;81.80;;;;;;6243991;22;20004;-77
2023/01/22 07:12:12;;;;;;;6.32;3.90;;;9.00;81.80;;;;;;6272115;22;20481;-78
2023/01/22 07:14:38;;;;;;;6.18;4.05;;;9.00;81.80;;;;;;6271789;22;20012;-78
2023/01/22 07:17:03;;;;;;;6.47;4.10;;;9.00;81.70;;;;;;6244951;22;20010;-78
2023/01/22 07:19:29;;;;;;;6.40;4.05;;;9.00;81.80;;;;;;6245294;22;20066;-76
2023/01/22 07:21:54;;;;;;;6.57;4.13;;;9.00;81.70;;;;;;6244777;22;20004;-77
2023/01/22 07:24:20;;;;;;;6.60;4.20;;;9.00;81.70;;;;;;6245080;22;20332;-79
2023/01/22 07:26:47;;;;;;;5.97;3.90;;;9.00;81.80;;;;;;6245327;22;20014;-76
2023/01/22 07:29:12;;;;;;;6.15;3.88;;;9.00;81.70;;;;;;6244961;22;20014;-76
2023/01/22 07:31:38;;;;;;;5.93;3.83;;;9.00;81.80;;;;;;6244870;22;20618;-77
2023/01/22 07:34:05;;;;;;;6.03;3.70;;;9.00;81.70;;;;;;6245014;22;20086;-76
2023/01/22 07:36:31;;;;;;;6.30;3.97;;;9.00;81.60;;;;;;6245175;22;20015;-75
2023/01/22 07:38:56;;;;;;;6.18;4.15;;;9.00;81.60;;;;;;6244781;22;20350;-77
2023/01/22 07:41:22;;;;;;;6.60;4.07;;;9.00;81.70;;;;;;6245533;22;20004;-75
2023/01/22 07:43:48;;;;;;;5.90;3.72;;;8.90;81.50;;;;;;6244640;22;20007;-76
2023/01/22 07:46:14;;;;;;;6.00;3.90;;;8.90;81.60;;;;;;6271422;22;20414;-82
2023/01/22 07:48:39;;;;;;;6.10;3.85;;;8.90;81.60;;;;;;6271731;22;20011;-76
2023/01/22 07:51:06;;;;;;;5.95;3.90;;;9.00;81.80;;;;;;6245628;22;20006;-77
2023/01/22 07:53:32;;;;;;;5.72;3.63;;;9.00;81.70;;;;;;6245251;22;20341;-78
2023/01/22 07:56:00;;;;;;;6.35;4.00;;;9.00;81.70;;;;;;6271090;22;20334;-78
2023/01/22 07:58:25;;;;;;;5.97;3.95;;;9.00;81.70;;;;;;6244950;22;20094;-77
2023/01/22 08:00:51;;;;;;;6.00;3.85;;;9.00;81.70;;;;;;6244336;22;20027;-77
2023/01/22 08:03:17;;;;;;;6.10;3.75;;;9.00;81.70;;;;;;6244338;22;20010;-78
2023/01/22 08:19:16;;;;;;;6.30;3.60;;;8.90;81.60;;;;;;6114251;23;20080;-76
2023/01/22 08:25:39;;;;;;;;;;;;;;;;;;;;;
2023/01/22 08:34:33;;;;;;;5.60;3.60;;;9.00;81.70;;;;;;6177217;23;20100;-81
2023/01/22 08:45:26;;;;;;;5.85;3.80;;;8.90;81.60;;;;;;6003052;23;20382;-76
2023/01/22 08:52:48;;;;;;;;;;;;;;;;;;;;;
2023/01/22 09:05:06;;;;;;;5.97;3.83;;;9.00;81.70;;;;;;6177431;23;20028;-75
2023/01/22 09:11:56;;;;;;;;;;;;;;;;;;;;;
2023/01/22 09:17:51;;;;;;;5.75;3.70;;;9.00;81.60;;;;;;6149239;23;20035;-79
2023/01/22 09:20:46;;;;;;;6.00;3.72;;;10.40;82.40;;;;;;6149920;23;20012;-75
2023/01/22 09:33:25;;;;;;;5.90;3.70;;;9.00;81.70;;;;;;6134998;23;20010;-78
2023/01/22 09:36:31;;;;;;;5.88;3.75;;;9.00;81.80;;;;;;6275262;22;20460;-75
2023/01/22 09:39:32;;;;;;;5.88;3.72;;;9.00;81.90;;;;;;6304477;22;20007;-75
2023/01/22 09:42:50;;;;;;;5.70;3.83;;;9.00;81.90;;;;;;6276970;22;20349;-77
2023/01/22 09:48:46;;;;;;;6.03;3.83;;;9.00;82.00;;;;;;6163968;23;20029;-76
2023/01/22 09:51:13;;;;;;;5.30;3.40;;;9.00;82.10;;;;;;6304241;22;20006;-75
2023/01/22 09:53:41;;;;;;;5.78;3.60;;;9.00;82.10;;;;;;6303538;22;20007;-77
2023/01/22 09:56:19;;;;;;;5.97;3.67;;;9.00;82.10;;;;;;6276508;22;20349;-76
2023/01/22 09:58:48;;;;;;;5.90;3.80;;;9.00;82.10;;;;;;6304406;22;20018;-76
2023/01/22 10:01:15;;;;;;;5.53;3.55;;;9.00;82.10;;;;;;6304017;22;20007;-77
2023/01/22 10:03:45;;;;;;;5.47;3.58;;;9.00;82.10;;;;;;6303470;22;20433;-79
2023/01/22 10:06:14;;;;;;;5.93;3.50;;;9.00;82.20;;;;;;6276985;22;20758;-75
2023/01/22 10:08:54;;;;;;;5.35;3.47;;;9.00;82.20;;;;;;6277489;22;20009;-78
2023/01/22 10:11:20;;;;;;;6.22;3.65;;;9.00;82.20;;;;;;6276357;22;20053;-80
2023/01/22 10:13:50;;;;;;;5.82;3.60;;;9.00;82.20;;;;;;6275447;22;20435;-75
2023/01/22 10:16:15;;;;;;;6.05;3.63;;;9.00;82.20;;;;;;6301919;22;20077;-77
2023/01/22 10:18:49;;;;;;;4.90;3.03;;;9.00;82.20;;;;;;6276612;22;20695;-76
2023/01/22 10:21:35;;;;;;;6.00;3.70;;;9.00;82.10;;;;;;6275862;22;20011;-76
2023/01/22 10:24:01;;;;;;;6.40;3.78;;;9.00;82.20;;;;;;6275835;22;20390;-76
2023/01/22 10:26:41;;;;;;;5.63;3.40;;;9.00;82.10;;;;;;6302808;22;20082;-81
2023/01/22 10:29:28;;;;;;;5.30;3.30;;;9.00;82.20;;;;;;6303034;22;20010;-79
2023/01/22 10:32:00;;;;;;;6.20;3.50;;;9.00;82.20;;;;;;6272454;22;20217;-76
2023/01/22 10:34:35;;;;;;;5.55;3.17;;;9.10;82.20;;;;;;6275439;22;20033;-76
2023/01/22 10:37:11;;;;;;;5.57;3.47;;;9.00;82.20;;;;;;6273779;22;20014;-76
2023/01/22 10:39:39;;;;;;;5.80;3.45;;;9.10;82.20;;;;;;6302825;22;20015;-74
2023/01/22 10:42:04;;;;;;;5.38;3.35;;;9.00;82.20;;;;;;6274765;22;20018;-74
2023/01/22 10:44:30;;;;;;;5.03;3.05;;;9.00;82.20;;;;;;6274717;22;20089;-81
2023/01/22 10:47:07;;;;;;;5.15;3.30;;;9.00;82.20;;;;;;6302525;22;20003;-77
2023/01/22 10:49:32;;;;;;;5.40;3.40;;;9.10;82.20;;;;;;6274388;22;20007;-79
2023/01/22 10:52:04;;;;;;;4.68;2.97;;;9.10;82.20;;;;;;6300848;22;20693;-75
2023/01/22 10:54:38;;;;;;;5.57;3.30;;;9.10;82.30;;;;;;6301656;22;20501;-76
2023/01/22 10:57:14;;;;;;;5.57;3.40;;;9.10;82.30;;;;;;6274371;22;20011;-74
2023/01/22 10:59:48;;;;;;;5.15;3.17;;;9.10;82.30;;;;;;6274106;22;20010;-74
2023/01/22 11:02:23;;;;;;;5.80;3.03;;;9.10;82.30;;;;;;6300803;22;20034;-73
2023/01/22 11:04:49;;;;;;;5.75;3.40;;;9.10;82.30;;;;;;6273752;22;20422;-73
2023/01/22 11:07:20;;;;;;;5.60;3.30;;;9.10;82.30;;;;;;6302013;22;20022;-75
2023/01/22 11:10:07;;;;;;;5.38;3.00;;;9.10;82.20;;;;;;6278860;22;19999;-79
2023/01/22 11:12:38;;;;;;;5.82;3.20;;;9.10;82.20;;;;;;6301538;22;20007;-77
2023/01/22 11:15:11;;;;;;;4.60;2.83;;;9.10;82.20;;;;;;6301759;22;20136;-78
2023/01/22 11:17:40;;;;;;;5.32;3.30;;;9.10;82.20;;;;;;6275063;22;20007;-77
2023/01/22 11:20:23;;;;;;;4.97;3.15;;;9.10;82.20;;;;;;6301867;22;20098;-77
2023/01/22 11:23:09;;;;;;;5.82;3.53;;;9.10;82.20;;;;;;6301529;22;20011;-78
2023/01/22 11:25:44;;;;;;;5.25;3.00;;;9.10;82.20;;;;;;6238316;22;20096;-76
2023/01/22 11:28:19;;;;;;;4.95;2.90;;;9.10;82.30;;;;;;6302009;22;20014;-77
2023/01/22 11:31:01;;;;;;;5.25;3.20;;;9.10;82.30;;;;;;6274169;22;20027;-78
2023/01/22 11:34:06;;;;;;;4.70;2.88;;;9.10;82.30;;;;;;6274402;22;20094;-78
2023/01/22 11:36:43;;;;;;;5.03;3.08;;;9.10;82.30;;;;;;6274145;22;20345;-76
2023/01/22 11:39:28;;;;;;;5.00;2.97;;;9.10;82.40;;;;;;6273495;22;20041;-77
2023/01/22 11:42:03;;;;;;;5.20;2.95;;;9.10;82.40;;;;;;6298822;22;20547;-77
2023/01/22 11:44:46;;;;;;;4.82;3.00;;;9.10;82.40;;;;;;6298605;22;20078;-76
2023/01/22 11:47:33;;;;;;;5.25;3.20;;;9.10;82.50;;;;;;6271097;22;20003;-76
2023/01/22 11:50:22;;;;;;;5.65;3.00;;;9.10;82.40;;;;;;6271655;22;20010;-77
2023/01/22 11:52:53;;;;;;;5.30;3.20;;;9.10;82.50;;;;;;6272195;22;20003;-76
2023/01/22 11:55:34;;;;;;;5.25;3.10;;;9.10;82.50;;;;;;6272826;22;20018;-77
2023/01/22 11:58:38;;;;;;;4.68;2.80;;;9.10;82.50;;;;;;6271680;22;20318;-77
2023/01/22 12:01:23;;;;;;;5.05;2.90;;;9.10;82.50;;;;;;6271701;22;20060;-76
2023/01/22 12:04:24;;;;;;;5.05;2.88;;;9.10;82.50;;;;;;6271751;22;20505;-76
2023/01/22 12:07:03;;;;;;;4.93;3.10;;;9.10;82.50;;;;;;6297398;22;20524;-75
2023/01/22 12:09:46;;;;;;;4.80;2.70;;;9.10;82.50;;;;;;6272447;22;20049;-75
2023/01/22 12:12:49;;;;;;;4.80;2.80;;;9.10;82.50;;;;;;6299610;22;19999;-76
2023/01/22 12:15:42;;;;;;;4.78;2.83;;;9.10;82.50;;;;;;6292064;22;20009;-76
2023/01/22 12:18:46;;;;;;;5.35;3.03;;;9.10;82.50;;;;;;6298978;22;20007;-76
2023/01/22 12:21:38;;;;;;;4.57;2.70;;;9.10;82.50;;;;;;6298482;22;20011;-75
2023/01/22 12:24:29;;;;;;;4.78;2.90;;;9.10;82.40;;;;;;6270828;22;20384;-76
2023/01/22 12:27:05;;;;;;;5.18;2.95;;;9.10;82.40;;;;;;6295301;22;20008;-77
2023/01/22 12:29:41;;;;;;;5.03;3.05;;;9.10;82.40;;;;;;6298967;22;20016;-77
2023/01/22 12:32:09;;;;;;;5.60;2.95;;;9.10;82.40;;;;;;6270804;22;20049;-74
2023/01/22 12:34:52;;;;;;;5.63;3.28;;;9.10;82.40;;;;;;6298403;22;20003;-74
2023/01/22 12:37:20;;;;;;;4.43;2.80;;;9.10;82.40;;;;;;6270550;22;20003;-75
2023/01/22 12:40:10;;;;;;;4.70;2.90;;;9.10;82.40;;;;;;6298533;22;20086;-76
2023/01/22 12:42:48;;;;;;;5.20;2.88;;;9.10;82.30;;;;;;6270611;22;20003;-75
2023/01/22 12:45:27;;;;;;;4.85;3.00;;;9.20;82.40;;;;;;6297383;22;20383;-74
2023/01/22 12:48:03;;;;;;;5.38;2.85;;;9.10;82.30;;;;;;6300328;22;20003;-76
2023/01/22 12:50:28;;;;;;;5.65;3.28;;;9.10;82.30;;;;;;6274327;22;20034;-77
2023/01/22 12:53:18;;;;;;;5.80;3.40;;;9.10;82.30;;;;;;6300923;22;20571;-76
2023/01/22 12:55:43;;;;;;;7.95;3.40;;;9.20;82.00;;;;;;6273636;22;20007;-77
2023/01/22 12:58:21;;;;;;;10.00;3.40;;;9.10;82.00;;;;;;6277582;22;20061;-80
2023/01/22 13:00:59;;;;;;;46.78;6.18;;;9.10;81.90;;;;;;6275223;22;20543;-80
2023/01/22 13:03:27;;;;;;;31.10;6.35;;;9.10;80.00;;;;;;6274683;22;20456;-77
2023/01/22 13:05:53;;;;;;;33.20;6.93;;;9.10;79.60;;;;;;6301537;22;20034;-76
2023/01/22 13:08:19;;;;;;;28.73;5.68;;;9.10;79.70;;;;;;6275577;22;19999;-76
2023/01/22 13:10:55;;;;;;;30.70;7.35;;;9.00;80.20;;;;;;6275087;22;20002;-78
2023/01/22 13:13:32;;;;;;;23.65;6.18;;;9.00;80.20;;;;;;6303346;22;19999;-78
2023/01/22 13:16:15;;;;;;;15.52;6.20;;;9.00;78.70;;;;;;6275345;22;20003;-79
2023/01/22 13:18:46;;;;;;;15.35;5.53;;;9.00;78.50;;;;;;6303191;22;20030;-78
2023/01/22 13:21:16;;;;;;;20.75;5.80;;;9.00;79.20;;;;;;6305833;22;20398;-81
2023/01/22 13:23:44;;;;;;;20.25;5.30;;;9.00;79.20;;;;;;6282721;22;20011;-80
2023/01/22 13:26:22;;;;;;;20.60;5.57;;;9.00;79.50;;;;;;6275579;22;20429;-79
2023/01/22 13:28:55;;;;;;;13.30;5.15;;;9.00;80.00;;;;;;6307985;22;20053;-83
2023/01/22 13:31:21;;;;;;;14.63;5.28;;;9.00;80.30;;;;;;6312455;22;19995;-84
2023/01/22 13:34:07;;;;;;;14.02;5.78;;;9.10;80.50;;;;;;6285289;22;20615;-82
2023/01/22 13:36:38;;;;;;;12.10;5.80;;;9.00;80.70;;;;;;6283409;22;20082;-81
2023/01/22 13:39:03;;;;;;;12.55;4.97;;;9.00;80.90;;;;;;6284165;22;20057;-83
2023/01/22 13:41:31;;;;;;;15.85;4.85;;;9.00;80.90;;;;;;6283982;22;20003;-83
2023/01/22 13:43:57;;;;;;;19.13;5.15;;;9.00;81.00;;;;;;6283222;22;20341;-84
2023/01/22 13:46:23;;;;;;;13.55;5.35;;;8.90;81.00;;;;;;6311449;22;20002;-84
2023/01/22 13:49:03;;;;;;;10.32;4.68;;;9.00;81.10;;;;;;6281274;22;20014;-82
2023/01/22 13:51:31;;;;;;;11.95;5.25;;;9.00;81.20;;;;;;6284447;22;20003;-82
2023/01/22 13:53:57;;;;;;;15.25;5.57;;;9.10;81.30;;;;;;6282214;22;20082;-83
2023/01/22 13:56:26;;;;;;;13.50;5.38;;;9.00;81.30;;;;;;6309337;22;20456;-83
2023/01/22 13:59:03;;;;;;;12.90;5.22;;;9.00;81.30;;;;;;6282578;22;20346;-81
2023/01/22 14:01:31;;;;;;;15.30;4.93;;;9.00;81.30;;;;;;6305441;22;20666;-81
2023/01/22 14:04:06;;;;;;;10.23;5.07;;;9.00;81.40;;;;;;6281932;22;20015;-82
2023/01/22 14:06:48;;;;;;;10.65;5.18;;;9.00;81.50;;;;;;6281120;22;20004;-78
2023/01/22 14:09:31;;;;;;;10.38;4.78;;;9.00;81.50;;;;;;6283622;22;20000;-83
2023/01/22 14:11:58;;;;;;;10.30;4.60;;;9.00;81.60;;;;;;6311212;22;20011;-83
2023/01/22 14:14:25;;;;;;;13.68;5.05;;;9.00;81.60;;;;;;6283435;22;20086;-82
2023/01/22 14:16:50;;;;;;;13.80;5.20;;;9.00;81.70;;;;;;6283313;22;20003;-82
2023/01/22 14:19:16;;;;;;;9.82;4.75;;;9.00;81.70;;;;;;6282796;22;20008;-83
2023/01/22 14:21:41;;;;;;;11.25;5.03;;;9.00;81.70;;;;;;6281943;22;20430;-80
2023/01/22 14:24:07;;;;;;;12.55;5.10;;;9.00;81.80;;;;;;6308475;22;20430;-80
2023/01/22 14:26:33;;;;;;;13.15;5.38;;;9.00;81.80;;;;;;6310276;22;19999;-82
2023/01/22 14:28:59;;;;;;;9.85;4.60;;;9.00;82.30;;;;;;6309182;22;19999;-79
2023/01/22 14:31:24;;;;;;;11.95;5.43;;;9.00;81.80;;;;;;6278588;22;20337;-81